Time;durP1;ratioP1;P1;durP2;ratioP2;P2;SDS_P1;SDS_P2;PMS_P1;PMS_P2;Temp;Humidity;BMP_temperature;BMP_pressure;BME280_temperature;BME280_humidity;BME280_pressure;Samples;Min_cycle;Max_cycle;Signal;HPM_P1;HPM_P2
2022/09/30 00:02:42;;;;;;;;;;;;;;;28.29;76.83;98160.22;4989274;28;20046;-71
2022/09/30 00:05:25;;;;;;;72.82;46.30;;;;;;;28.25;76.88;98164.84;4988544;28;20325;-70
2022/09/30 00:08:14;;;;;;;75.55;45.95;;;;;;;28.21;77.27;98168.63;4986797;28;20058;-71
2022/09/30 00:11:18;;;;;;;73.20;44.80;;;;;;;28.26;76.95;98169.22;4940231;28;20053;-70
2022/09/30 00:14:18;;;;;;;69.57;46.78;;;;;;;28.23;76.98;98171.84;4988772;28;20073;-70
2022/09/30 00:16:54;;;;;;;79.80;47.47;;;;;;;28.15;77.13;98172.78;4980772;28;20141;-69
2022/09/30 00:19:50;;;;;;;80.85;47.72;;;;;;;28.18;77.10;98181.16;4987338;28;20101;-70
2022/09/30 00:22:26;;;;;;;79.78;46.78;;;;;;;28.17;77.23;98182.31;4987985;28;20569;-68
2022/09/30 00:25:15;;;;;;;83.78;47.38;;;;;;;28.13;77.40;98178.63;4988042;28;20078;-69
2022/09/30 00:28:06;;;;;;;77.97;48.95;;;;;;;28.07;77.62;98186.31;4988511;28;20108;-70
2022/09/30 00:31:06;;;;;;;81.22;49.33;;;;;;;28.14;77.34;98199.53;4988409;28;20047;-70
2022/09/30 00:33:43;;;;;;;80.13;49.38;;;;;;;28.07;77.51;98193.78;5002330;28;20057;-69
2022/09/30 00:36:52;;;;;;;84.30;50.50;;;;;;;28.07;77.43;98202.03;4989845;28;20073;-70
2022/09/30 00:39:29;;;;;;;86.03;50.95;;;;;;;28.06;77.64;98214.25;4987642;28;20046;-70
2022/09/30 00:42:18;;;;;;;91.15;52.10;;;;;;;28.14;77.15;98207.81;4987787;28;20453;-69
2022/09/30 00:45:13;;;;;;;75.57;49.47;;;;;;;28.16;77.01;98210.22;4988447;28;20140;-70
2022/09/30 00:48:17;;;;;;;91.03;52.08;;;;;;;28.06;77.84;98217.00;4987985;28;20624;-69
2022/09/30 00:50:59;;;;;;;75.55;50.03;;;;;;;28.15;77.32;98231.50;4988078;28;20679;-69
2022/09/30 00:53:56;;;;;;;78.88;51.15;;;;;;;28.06;77.45;98228.84;4989168;28;20057;-70
2022/09/30 00:56:50;;;;;;;83.35;52.20;;;;;;;28.04;77.72;98231.13;4987834;28;20053;-70
2022/09/30 00:59:46;;;;;;;79.13;51.15;;;;;;;28.03;78.38;98228.72;4970722;28;20129;-70
2022/09/30 01:02:35;;;;;;;79.65;48.88;;;;;;;28.04;78.18;98235.84;4985534;28;20541;-71
2022/09/30 01:05:17;;;;;;;84.05;52.75;;;;;;;28.08;77.99;98243.09;4987605;28;20060;-70
2022/09/30 01:08:09;;;;;;;82.20;49.95;;;;;;;28.01;78.36;98240.09;4987957;28;20046;-71
2022/09/30 01:10:51;;;;;;;79.95;49.50;;;;;;;28.10;78.21;98246.31;4987472;28;20046;-71
2022/09/30 01:13:41;;;;;;;74.05;50.00;;;;;;;28.03;77.98;98243.34;4972558;28;20054;-70
2022/09/30 01:16:30;;;;;;;87.28;50.50;;;;;;;28.09;77.90;98249.44;4987379;28;20061;-71
2022/09/30 01:19:22;;;;;;;74.47;49.47;;;;;;;28.09;78.60;98252.19;4987281;28;20434;-69
2022/09/30 01:22:27;;;;;;;75.28;48.35;;;;;;;28.24;77.66;98251.53;4987605;28;20061;-69
2022/09/30 01:25:52;;;;;;;82.70;49.00;;;;;;;28.25;77.79;98269.69;4987019;28;20045;-69
2022/09/30 01:28:54;;;;;;;78.35;49.13;;;;;;;28.19;77.96;98262.78;4987218;28;20864;-69
2022/09/30 01:32:12;;;;;;;78.65;50.25;;;;;;;28.31;77.53;98271.06;4986938;28;20050;-69
2022/09/30 01:34:58;;;;;;;93.18;49.75;;;;;;;28.31;77.64;98271.06;4990092;28;20476;-70
2022/09/30 01:38:10;;;;;;;82.28;48.03;;;;;;;28.37;77.38;98271.66;5006881;28;20120;-69
2022/09/30 01:41:01;;;;;;;78.93;46.10;;;;;;;28.49;76.95;98274.44;5005738;28;20052;-69
2022/09/30 01:44:01;;;;;;;76.53;45.15;;;;;;;28.45;76.60;98278.22;5006707;28;20129;-69
2022/09/30 01:46:49;;;;;;;76.30;43.75;;;;;;;28.53;76.48;98277.34;5006447;28;20048;-70
2022/09/30 01:49:49;;;;;;;68.53;42.97;;;;;;;28.64;76.12;98283.22;4998899;28;20049;-69
2022/09/30 01:52:40;;;;;;;67.45;41.88;;;;;;;28.66;76.20;98281.72;4966679;28;20129;-69
2022/09/30 01:55:46;;;;;;;68.72;43.00;;;;;;;28.76;76.38;98287.94;4986096;28;20141;-68
2022/09/30 01:58:48;;;;;;;64.93;40.90;;;;;;;28.85;75.86;98291.38;4984931;28;20058;-69
2022/09/30 02:01:50;;;;;;;86.18;41.75;;;;;;;29.02;75.27;98296.66;4986521;28;20061;-68
2022/09/30 02:04:52;;;;;;;79.63;42.28;;;;;;;29.04;74.45;98299.91;4985613;28;20065;-69
2022/09/30 02:07:46;;;;;;;66.45;41.42;;;;;;;29.08;75.58;98309.13;4985956;28;20054;-69
2022/09/30 02:10:45;;;;;;;73.10;42.13;;;;;;;29.16;74.91;98312.09;4985323;28;20856;-70
2022/09/30 02:14:02;;;;;;;80.28;42.70;;;;;;;29.15;75.26;98308.53;4985233;28;20070;-72
2022/09/30 02:17:03;;;;;;;76.95;40.50;;;;;;;29.25;74.68;98310.84;4985187;28;20046;-72
2022/09/30 02:19:53;;;;;;;80.00;44.13;;;;;;;29.25;74.72;98319.16;4985094;28;20133;-71
2022/09/30 02:22:54;;;;;;;88.60;45.30;;;;;;;29.25;74.62;98319.16;4986256;28;20478;-71
2022/09/30 02:25:41;;;;;;;87.60;45.72;;;;;;;29.28;73.11;98315.66;4985114;28;20050;-72
2022/09/30 02:28:38;;;;;;;83.72;45.05;;;;;;;29.46;73.85;98326.47;4986031;28;20438;-71
2022/09/30 02:31:17;;;;;;;85.18;45.05;;;;;;;29.60;72.80;98331.63;4986163;28;20054;-70
2022/09/30 02:34:13;;;;;;;74.25;43.58;;;;;;;29.62;72.67;98334.84;4987613;28;20506;-70
2022/09/30 02:37:18;;;;;;;67.15;41.88;;;;;;;29.88;71.65;98336.41;4967929;28;20070;-70
2022/09/30 02:40:15;;;;;;;84.63;44.70;;;;;;;29.96;70.80;98343.72;4966919;28;20062;-68
2022/09/30 02:42:57;;;;;;;80.43;42.15;;;;;;;30.02;69.44;98345.13;4980117;28;20050;-72
2022/09/30 02:46:11;;;;;;;80.60;43.25;;;;;;;30.13;69.54;98339.88;4996350;28;20501;-69
2022/09/30 02:49:23;;;;;;;75.28;43.35;;;;;;;30.19;69.28;98347.56;5005607;28;20104;-70
2022/09/30 02:52:25;;;;;;;74.00;43.45;;;;;;;30.25;70.07;98346.16;5005502;28;20054;-70
2022/09/30 02:55:27;;;;;;;83.45;44.17;;;;;;;30.03;68.40;98355.00;5005463;28;20050;-70
2022/09/30 02:58:15;;;;;;;77.60;42.28;;;;;;;30.31;67.99;98356.97;4993551;28;20054;-72
2022/09/30 03:01:13;;;;;;;81.88;42.20;;;;;;;30.34;65.87;98347.97;4984044;28;20897;-69
2022/09/30 03:03:59;;;;;;;62.08;35.30;;;;;;;30.46;64.66;98356.22;4983787;28;20050;-72
2022/09/30 03:06:48;;;;;;;64.88;34.67;;;;;;;30.65;64.07;98355.53;4984855;28;20356;-70
2022/09/30 03:09:32;;;;;;;64.43;32.95;;;;;;;30.56;63.10;98360.44;4985206;28;20129;-70
2022/09/30 03:12:45;;;;;;;66.85;31.17;;;;;;;30.79;62.84;98353.13;4985786;28;20121;-71
2022/09/30 03:15:35;;;;;;;61.20;30.30;;;;;;;30.82;62.57;98362.66;4985102;28;20114;-71
2022/09/30 03:18:32;;;;;;;60.20;30.90;;;;;;;30.87;63.13;98356.88;4985670;28;20121;-71
2022/09/30 03:21:33;;;;;;;56.03;26.92;;;;;;;30.85;61.98;98364.72;4985141;28;20046;-71
2022/09/30 03:24:45;;;;;;;63.85;29.40;;;;;;;30.89;62.10;98362.06;4980583;28;20073;-72
2022/09/30 03:27:46;;;;;;;58.75;30.08;;;;;;;31.02;63.17;98364.38;4968210;28;20398;-71
2022/09/30 03:30:31;;;;;;;58.90;26.92;;;;;;;31.11;60.45;98360.63;4969881;28;20051;-71
2022/09/30 03:33:26;;;;;;;58.35;26.02;;;;;;;31.35;62.23;98362.38;4978947;28;20054;-71
2022/09/30 03:36:33;;;;;;;52.70;25.55;;;;;;;31.49;60.92;98367.47;4970666;28;20125;-71
2022/09/30 03:39:29;;;;;;;39.25;22.35;;;;;;;31.36;60.76;98364.00;4985523;28;20443;-71
2022/09/30 03:42:19;;;;;;;43.63;22.48;;;;;;;31.36;59.69;98359.25;4986074;28;20070;-70
2022/09/30 03:45:21;;;;;;;42.58;22.17;;;;;;;31.25;58.45;98360.19;4985716;28;20073;-69
2022/09/30 03:48:09;;;;;;;46.42;21.40;;;;;;;31.39;58.26;98364.09;4985485;28;20054;-71
2022/09/30 03:50:59;;;;;;;42.20;20.70;;;;;;;31.54;57.95;98364.44;4985350;28;20058;-71
2022/09/30 03:53:49;;;;;;;47.65;20.60;;;;;;;31.54;58.61;98369.97;4986201;28;20062;-71
2022/09/30 03:56:42;;;;;;;43.83;20.10;;;;;;;31.66;58.66;98372.59;4989047;28;20097;-71
2022/09/30 03:59:33;;;;;;;42.72;20.95;;;;;;;31.83;57.82;98376.94;4991145;28;20061;-71
2022/09/30 04:02:15;;;;;;;43.72;20.90;;;;;;;31.87;57.68;98368.69;4988917;28;20521;-70
2022/09/30 04:05:04;;;;;;;45.33;20.15;;;;;;;32.11;58.66;98375.97;4989340;28;20046;-71
2022/09/30 04:07:46;;;;;;;41.42;20.48;;;;;;;32.33;57.53;98368.84;4986468;28;20109;-71
2022/09/30 04:10:35;;;;;;;44.20;21.90;;;;;;;32.15;57.63;98372.06;4988258;28;20109;-71
2022/09/30 04:13:17;;;;;;;44.38;19.05;;;;;;;32.33;55.13;98372.44;4988817;28;20110;-71
2022/09/30 04:16:06;;;;;;;42.70;20.42;;;;;;;32.49;54.75;98371.53;5004604;28;20434;-70
2022/09/30 04:19:02;;;;;;;37.05;17.25;;;;;;;32.84;55.56;98368.59;4988437;28;20038;-70
2022/09/30 04:21:37;;;;;;;43.83;18.80;;;;;;;32.92;54.97;98377.88;4986496;28;20046;-71
2022/09/30 04:24:33;;;;;;;39.17;19.60;;;;;;;33.13;53.74;98371.88;4988595;28;20053;-71
2022/09/30 04:27:09;;;;;;;36.88;18.85;;;;;;;33.24;52.69;98370.06;4986728;28;20121;-71
2022/09/30 04:29:58;;;;;;;34.58;17.13;;;;;;;33.61;51.69;98372.22;4988470;28;20493;-71
2022/09/30 04:32:50;;;;;;;40.75;19.27;;;;;;;33.81;52.51;98366.53;4986255;28;20133;-71
2022/09/30 04:35:32;;;;;;;42.08;18.92;;;;;;;34.22;51.29;98375.78;4983962;28;20060;-71
2022/09/30 04:38:21;;;;;;;38.65;18.98;;;;;;;34.43;49.52;98369.69;4987530;28;20584;-71
2022/09/30 04:41:05;;;;;;;38.00;19.02;;;;;;;34.56;50.13;98369.38;4988039;28;20117;-70
2022/09/30 04:43:55;;;;;;;42.17;17.10;;;;;;;35.07;48.24;98368.69;4987827;28;20168;-71
2022/09/30 04:46:37;;;;;;;42.30;18.13;;;;;;;35.07;48.34;98365.88;4985186;28;20054;-70
2022/09/30 04:49:26;;;;;;;42.25;18.45;;;;;;;34.97;47.99;98372.16;4987210;28;20085;-71
2022/09/30 04:52:15;;;;;;;38.33;17.00;;;;;;;35.40;49.21;98361.34;4989219;28;20069;-71
2022/09/30 04:54:57;;;;;;;43.90;17.08;;;;;;;35.88;50.02;98369.63;4987722;28;20054;-71
2022/09/30 04:57:46;;;;;;;37.55;17.70;;;;;;;35.76;46.40;98364.38;4985404;28;20054;-71
2022/09/30 05:00:35;;;;;;;35.85;17.55;;;;;;;36.12;46.39;98356.94;4985699;28;20061;-71
2022/09/30 05:03:18;;;;;;;43.40;18.15;;;;;;;35.58;47.27;98356.69;4986838;28;20054;-71
2022/09/30 05:06:08;;;;;;;43.05;17.40;;;;;;;35.33;45.60;98355.72;4986155;28;20161;-71
2022/09/30 05:08:50;;;;;;;33.28;15.00;;;;;;;35.50;46.19;98349.44;4985675;28;20738;-71
2022/09/30 05:11:41;;;;;;;38.45;15.30;;;;;;;36.29;47.00;98344.25;4986375;28;20046;-72
2022/09/30 05:14:23;;;;;;;42.22;14.65;;;;;;;36.31;46.45;98347.44;4983502;28;20796;-70
2022/09/30 05:17:12;;;;;;;42.13;15.65;;;;;;;36.12;42.90;98347.78;4987070;28;20066;-71
2022/09/30 05:20:09;;;;;;;31.85;13.43;;;;;;;35.77;42.70;98335.25;4972904;28;20050;-71
2022/09/30 05:23:00;;;;;;;24.98;13.30;;;;;;;36.41;45.81;98331.91;4986026;28;20050;-72
2022/09/30 05:25:50;;;;;;;31.70;12.23;;;;;;;36.26;43.71;98319.88;4982533;28;20150;-71
2022/09/30 05:28:32;;;;;;;31.08;13.05;;;;;;;36.22;42.45;98319.88;4979392;28;20053;-71
2022/09/30 05:31:21;;;;;;;33.33;14.70;;;;;;;36.06;45.18;98320.22;4982303;28;20078;-69
2022/09/30 05:34:03;;;;;;;34.97;14.30;;;;;;;35.95;44.49;98311.00;4996801;28;20050;-69
2022/09/30 05:36:53;;;;;;;30.80;13.55;;;;;;;36.35;42.72;98314.72;4982922;28;20457;-69
2022/09/30 05:39:38;;;;;;;28.73;13.48;;;;;;;36.61;44.82;98313.56;4969745;28;20134;-72
2022/09/30 05:42:27;;;;;;;32.10;11.32;;;;;;;36.49;41.34;98307.56;4975199;28;20438;-70
2022/09/30 05:45:09;;;;;;;26.23;10.88;;;;;;;36.25;40.82;98307.13;4979633;28;20129;-67
2022/09/30 05:47:59;;;;;;;42.75;12.43;;;;;;;36.02;42.95;98304.63;4975163;28;20047;-67
2022/09/30 05:50:49;;;;;;;26.65;11.00;;;;;;;36.47;43.09;98301.56;4981486;28;20344;-67
2022/09/30 05:53:41;;;;;;;27.15;11.77;;;;;;;36.51;41.90;98296.78;4979263;28;20057;-66
2022/09/30 05:56:23;;;;;;;26.20;11.30;;;;;;;36.28;41.42;98295.16;4983924;28;20053;-68
2022/09/30 05:59:13;;;;;;;29.52;11.23;;;;;;;36.22;42.80;98299.53;4983419;28;20054;-67
2022/09/30 06:01:55;;;;;;;27.38;12.48;;;;;;;36.25;40.21;98295.97;4982753;28;20050;-69
2022/09/30 06:04:44;;;;;;;28.33;12.30;;;;;;;36.16;43.27;98289.91;4983953;28;20873;-71
2022/09/30 06:07:27;;;;;;;34.13;12.38;;;;;;;36.59;43.59;98295.56;4983117;28;20081;-73
2022/09/30 06:10:16;;;;;;;32.20;11.55;;;;;;;36.61;44.12;98282.81;4637754;28;9999666;-67
2022/09/30 06:12:58;;;;;;;35.58;13.15;;;;;;;35.98;42.52;98279.50;4981510;28;20039;-68
2022/09/30 06:15:47;;;;;;;31.77;12.98;;;;;;;36.20;41.38;98285.94;4979063;28;20074;-68
2022/09/30 06:18:30;;;;;;;31.48;12.10;;;;;;;36.12;42.97;98289.91;4979618;28;20061;-69
2022/09/30 06:21:22;;;;;;;32.90;12.55;;;;;;;36.16;41.29;98273.94;4988805;28;20152;-69
2022/09/30 06:24:05;;;;;;;40.47;12.55;;;;;;;36.10;41.98;98269.94;4981622;28;20057;-70
2022/09/30 06:26:54;;;;;;;35.67;13.50;;;;;;;36.31;44.75;98277.59;4980663;28;20494;-71
2022/09/30 06:29:37;;;;;;;26.25;11.73;;;;;;;36.05;44.29;98268.34;4979037;28;20576;-71
2022/09/30 06:32:26;;;;;;;31.65;12.57;;;;;;;36.42;43.34;98266.41;4979532;28;20054;-69
2022/09/30 06:35:15;;;;;;;27.52;12.50;;;;;;;36.06;41.70;98261.56;4980313;28;20034;-69
2022/09/30 06:38:04;;;;;;;23.05;12.25;;;;;;;36.47;43.05;98257.63;4980292;28;20094;-69
2022/09/30 06:40:49;;;;;;;22.60;12.55;;;;;;;36.58;44.36;98250.06;4981899;28;20209;-68
2022/09/30 06:43:39;;;;;;;25.88;12.50;;;;;;;36.28;43.36;98244.84;4978735;28;20050;-67
2022/09/30 06:46:36;;;;;;;23.15;11.80;;;;;;;36.36;41.89;98240.06;4980369;28;20050;-68
2022/09/30 06:49:34;;;;;;;23.00;11.52;;;;;;;35.67;43.10;98237.13;4970261;28;20609;-68
2022/09/30 06:52:29;;;;;;;25.48;11.93;;;;;;;36.10;40.23;98236.44;4980341;28;20589;-68
2022/09/30 06:55:26;;;;;;;29.83;12.73;;;;;;;36.04;42.35;98230.44;4982069;28;20106;-69
2022/09/30 06:58:01;;;;;;;25.23;12.00;;;;;;;35.78;40.81;98228.78;4982336;28;20137;-68
2022/09/30 07:01:03;;;;;;;24.85;13.20;;;;;;;36.12;41.14;98220.06;4981767;28;20054;-68
2022/09/30 07:03:56;;;;;;;34.08;12.90;;;;;;;35.98;45.13;98217.25;4989961;28;20054;-71
2022/09/30 07:06:45;;;;;;;29.10;12.18;;;;;;;36.17;43.94;98211.34;4975273;28;20054;-68
2022/09/30 07:09:28;;;;;;;24.88;13.80;;;;;;;36.42;46.98;98200.16;4976990;28;22851;-68
2022/09/30 07:12:17;;;;;;;33.33;13.27;;;;;;;36.26;43.55;98203.34;4979345;28;20054;-68
2022/09/30 07:14:59;;;;;;;29.13;14.18;;;;;;;36.51;43.87;98198.94;4982589;28;20046;-66
2022/09/30 07:18:01;;;;;;;28.38;12.95;;;;;;;36.44;43.96;98188.59;4975437;28;20053;-68
2022/09/30 07:20:36;;;;;;;23.58;14.07;;;;;;;36.18;42.54;98184.97;4978059;28;20046;-72
2022/09/30 07:23:26;;;;;;;27.75;14.13;;;;;;;36.40;41.20;98176.59;4980201;28;20050;-68
2022/09/30 07:26:09;;;;;;;30.63;13.50;;;;;;;36.42;40.74;98176.97;4975162;28;20437;-69
2022/09/30 07:28:58;;;;;;;24.85;12.57;;;;;;;36.30;40.81;98169.81;4978807;28;20050;-67
2022/09/30 07:31:41;;;;;;;24.42;11.77;;;;;;;36.39;39.85;98178.59;4984321;28;20046;-68
2022/09/30 07:34:30;;;;;;;25.73;12.30;;;;;;;35.97;41.21;98166.19;4981711;28;20165;-68
2022/09/30 07:37:13;;;;;;;23.63;12.57;;;;;;;36.58;43.34;98162.59;4983219;28;20521;-69
2022/09/30 07:40:06;;;;;;;24.15;12.50;;;;;;;36.44;41.51;98158.63;4991237;28;20054;-69
2022/09/30 07:42:55;;;;;;;24.08;12.85;;;;;;;36.55;41.37;98149.44;4991730;28;20084;-67
2022/09/30 07:45:44;;;;;;;26.08;12.30;;;;;;;36.47;43.22;98147.84;4982402;28;20050;-68
2022/09/30 07:48:43;;;;;;;32.15;13.70;;;;;;;36.43;41.03;98145.84;4981786;28;20125;-68
2022/09/30 07:51:30;;;;;;;32.33;13.25;;;;;;;36.50;40.96;98136.66;4966692;28;20262;-67
2022/09/30 07:54:31;;;;;;;23.80;13.00;;;;;;;36.58;43.79;98135.44;4981328;28;20943;-69
2022/09/30 07:57:25;;;;;;;32.25;12.05;;;;;;;36.56;39.19;98128.66;4982675;28;20046;-71
2022/09/30 08:00:07;;;;;;;25.27;13.07;;;;;;;36.49;41.27;98123.09;4983899;28;20054;-66
2022/09/30 08:03:16;;;;;;;26.02;12.25;;;;;;;36.36;41.19;98120.69;4982882;28;20058;-65
2022/09/30 08:05:58;;;;;;;25.48;13.20;;;;;;;36.20;40.38;98114.75;4982668;28;20106;-66
2022/09/30 08:08:49;;;;;;;28.45;12.60;;;;;;;36.41;41.87;98117.50;4983896;28;20081;-66
2022/09/30 08:11:32;;;;;;;36.28;12.93;;;;;;;36.18;42.54;98109.56;4984418;28;20058;-68
2022/09/30 08:14:24;;;;;;;30.30;13.40;;;;;;;36.31;41.22;98104.34;4983094;28;20046;-68
2022/09/30 08:17:06;;;;;;;31.80;12.88;;;;;;;36.05;40.46;98100.75;4982825;28;20046;-70
2022/09/30 08:19:55;;;;;;;28.73;13.00;;;;;;;36.15;41.36;98103.94;4983749;28;20050;-69
2022/09/30 08:22:37;;;;;;;29.88;12.98;;;;;;;36.23;41.07;98097.16;4983211;28;20054;-68
2022/09/30 08:25:32;;;;;;;30.45;13.85;;;;;;;36.18;41.13;98092.00;4966637;28;20101;-68
2022/09/30 08:28:08;;;;;;;20.67;12.18;;;;;;;35.84;40.24;98093.16;4988263;28;20054;-70
2022/09/30 08:31:23;;;;;;;29.08;12.95;;;;;;;36.19;40.93;98082.41;4985371;28;20046;-71
2022/09/30 08:34:06;;;;;;;23.00;12.90;;;;;;;35.83;41.13;98076.84;4985559;28;20054;-67
2022/09/30 08:36:55;;;;;;;24.67;13.15;;;;;;;35.46;41.42;98080.75;4968630;28;20136;-72
2022/09/30 08:39:49;;;;;;;25.95;11.98;;;;;;;35.88;41.13;98073.63;4983387;28;20053;-70
2022/09/30 08:43:02;;;;;;;26.63;13.45;;;;;;;35.91;39.22;98061.69;4981461;28;20078;-68
2022/09/30 08:46:14;;;;;;;27.40;12.90;;;;;;;35.84;39.72;98061.66;4985232;28;20141;-68
2022/09/30 08:49:02;;;;;;;27.17;12.20;;;;;;;35.62;39.47;98058.06;4984562;28;20054;-66
2022/09/30 08:51:54;;;;;;;26.48;12.27;;;;;;;35.95;40.59;98056.09;4966233;28;20162;-68
2022/09/30 08:54:38;;;;;;;34.20;12.88;;;;;;;35.65;40.23;98051.66;4966897;28;20057;-68
2022/09/30 08:57:30;;;;;;;29.10;13.50;;;;;;;35.77;40.53;98047.69;4984245;28;20062;-74
2022/09/30 09:00:15;;;;;;;24.80;13.35;;;;;;;35.75;42.97;98047.31;4984795;28;20046;-73
2022/09/30 09:03:07;;;;;;;23.92;14.35;;;;;;;35.86;40.92;98037.72;4985418;28;20133;-74
2022/09/30 09:06:03;;;;;;;30.27;12.95;;;;;;;35.81;39.82;98037.34;4986239;28;20050;-77
2022/09/30 09:09:04;;;;;;;22.88;13.40;;;;;;;36.25;42.52;98031.34;4986159;28;20050;-75
2022/09/30 09:12:11;;;;;;;28.00;13.93;;;;;;;35.90;41.60;98031.34;4985227;28;20109;-73
2022/09/30 09:15:27;;;;;;;28.63;13.40;;;;;;;35.87;40.69;98022.59;4986139;28;20046;-73
2022/09/30 09:18:45;;;;;;;26.58;12.23;;;;;;;35.91;40.60;98017.00;5006028;28;20054;-76
2022/09/30 09:21:58;;;;;;;33.17;12.77;;;;;;;35.92;40.79;98015.78;5007187;28;20353;-73
2022/09/30 09:24:46;;;;;;;24.63;12.55;;;;;;;35.83;40.70;98007.03;5000926;28;20486;-75
2022/09/30 09:28:12;;;;;;;25.58;12.55;;;;;;;35.78;40.52;97999.06;4986088;28;20050;-72
2022/09/30 09:30:59;;;;;;;22.45;11.95;;;;;;;36.03;42.29;97999.03;4981552;28;20047;-73
2022/09/30 09:33:49;;;;;;;33.42;13.57;;;;;;;35.86;41.67;97997.84;4986481;28;20050;-72
2022/09/30 09:36:34;;;;;;;36.47;12.00;;;;;;;35.65;40.38;98001.44;4986126;28;20050;-72
2022/09/30 09:39:44;;;;;;;34.22;12.48;;;;;;;35.87;42.50;98000.25;4987639;28;20393;-74
2022/09/30 09:42:48;;;;;;;27.20;12.88;;;;;;;35.80;41.94;97988.28;4986347;28;20078;-74
2022/09/30 09:46:02;;;;;;;35.90;14.63;;;;;;;35.70;41.14;97992.69;4985042;28;20074;-74
2022/09/30 09:48:44;;;;;;;27.55;11.52;;;;;;;36.01;40.74;97991.03;4985108;28;20050;-71
2022/09/30 09:51:46;;;;;;;27.70;11.95;;;;;;;35.91;40.44;97983.50;4985632;28;20050;-71
2022/09/30 09:54:47;;;;;;;25.70;12.30;;;;;;;36.04;41.01;97981.88;4986343;28;20616;-68
2022/09/30 09:57:43;;;;;;;23.20;12.23;;;;;;;36.05;39.56;97977.84;4985674;28;20126;-71
2022/09/30 10:01:31;;;;;;;25.17;10.98;;;;;;;36.03;38.66;97976.69;4988654;28;20502;-71
2022/09/30 10:04:17;;;;;;;29.67;12.13;;;;;;;35.73;37.60;97971.53;4966917;28;20042;-72
2022/09/30 10:07:18;;;;;;;21.55;12.75;;;;;;;35.57;39.03;97975.50;4985479;28;20128;-70
2022/09/30 10:10:21;;;;;;;28.13;12.48;;;;;;;35.67;39.35;97968.31;4985017;28;20423;-70
2022/09/30 10:12:58;;;;;;;25.33;11.25;;;;;;;35.73;41.42;97969.53;4985501;28;20060;-70
2022/09/30 10:15:56;;;;;;;27.10;11.90;;;;;;;35.79;40.65;97965.16;4639216;28;9999865;-70
2022/09/30 10:18:35;;;;;;;22.88;11.50;;;;;;;35.71;40.42;97973.94;4990755;28;20050;-72
2022/09/30 10:21:27;;;;;;;18.80;11.07;;;;;;;35.75;41.06;97963.56;4983703;28;20473;-72
2022/09/30 10:24:32;;;;;;;24.00;11.93;;;;;;;35.55;40.75;97958.38;4983099;28;20129;-72
2022/09/30 10:27:39;;;;;;;20.92;10.77;;;;;;;35.63;40.98;97948.78;4971073;28;20065;-71
2022/09/30 10:30:39;;;;;;;20.85;11.02;;;;;;;35.34;40.12;97944.44;4985439;28;20140;-72
2022/09/30 10:33:42;;;;;;;24.50;10.77;;;;;;;35.55;40.09;97941.63;4964091;28;20062;-69
2022/09/30 10:36:20;;;;;;;22.77;10.32;;;;;;;35.63;41.09;97945.22;4981809;28;20881;-71
2022/09/30 10:39:31;;;;;;;23.50;10.88;;;;;;;35.64;40.60;97941.25;4965801;28;20050;-71
2022/09/30 10:42:07;;;;;;;;;;;;;;;35.71;42.04;97940.44;4964858;28;20066;-71
2022/09/30 10:45:27;;;;;;;24.13;13.60;;;;;;;35.34;42.76;97939.66;4976538;28;20595;-71
2022/09/30 10:48:13;;;;;;;22.75;10.23;;;;;;;35.40;42.88;97934.47;4964502;28;20082;-72
2022/09/30 10:51:10;;;;;;;21.40;10.70;;;;;;;35.46;44.39;97944.03;4971062;28;20054;-74
2022/09/30 10:53:52;;;;;;;25.75;10.85;;;;;;;35.38;43.68;97939.66;4963495;28;20109;-74
2022/09/30 10:56:51;;;;;;;26.92;11.25;;;;;;;35.17;43.02;97934.84;4963809;28;20070;-71
2022/09/30 10:59:42;;;;;;;23.63;10.17;;;;;;;35.35;44.66;97946.03;4637897;28;9999829;-73
2022/09/30 11:02:27;;;;;;;26.52;11.60;;;;;;;35.20;43.05;97940.44;4982368;28;20108;-75
2022/09/30 11:05:43;;;;;;;19.65;10.73;;;;;;;35.13;43.71;97934.84;4985513;28;20133;-73
2022/09/30 11:09:06;;;;;;;22.75;10.38;;;;;;;35.14;43.43;97936.44;4984018;28;20046;-75
2022/09/30 11:12:11;;;;;;;20.85;10.05;;;;;;;34.93;43.61;97936.41;4963114;28;20051;-71
2022/09/30 11:15:06;;;;;;;28.92;10.77;;;;;;;34.99;44.60;97938.41;4988315;28;20085;-73
2022/09/30 11:18:41;;;;;;;25.15;10.98;;;;;;;34.98;43.02;97936.00;4988898;28;20058;-73
2022/09/30 11:21:33;;;;;;;23.48;10.45;;;;;;;34.86;43.06;97937.97;4942291;28;20777;-72
2022/09/30 11:24:44;;;;;;;26.92;11.40;;;;;;;34.92;43.55;97937.59;4650041;28;10000583;-74
2022/09/30 11:28:04;;;;;;;20.75;11.15;;;;;;;34.95;43.30;97939.59;4971231;28;20141;-70
2022/09/30 11:31:21;;;;;;;23.30;10.73;;;;;;;34.97;44.15;97937.19;4972982;28;20058;-72
2022/09/30 11:34:21;;;;;;;28.88;10.70;;;;;;;34.86;44.00;97949.13;4972108;28;20509;-74
2022/09/30 11:37:19;;;;;;;26.73;11.52;;;;;;;34.80;43.55;97941.56;4988885;28;20119;-74
2022/09/30 11:40:35;;;;;;;22.35;9.90;;;;;;;34.81;43.06;97945.94;4956081;28;20426;-72
2022/09/30 11:43:55;;;;;;;23.85;10.05;;;;;;;34.60;43.41;97946.66;4988418;28;20077;-70
2022/09/30 11:47:01;;;;;;;18.17;9.52;;;;;;;34.62;44.66;97958.19;4989284;28;20366;-69
2022/09/30 11:50:05;;;;;;;16.40;9.80;;;;;;;34.45;44.42;97949.41;4958321;28;20071;-72
2022/09/30 11:53:12;;;;;;;24.27;10.05;;;;;;;34.46;43.66;97950.19;4987847;28;20453;-71
2022/09/30 11:56:12;;;;;;;22.42;10.77;;;;;;;34.40;44.46;97955.34;4984990;28;20101;-70
2022/09/30 11:59:06;;;;;;;25.98;10.48;;;;;;;34.33;44.78;97949.72;4990042;28;20153;-72
2022/09/30 12:01:53;;;;;;;17.95;9.48;;;;;;;34.28;44.58;97934.22;4989334;28;20105;-71
2022/09/30 12:04:46;;;;;;;19.77;9.52;;;;;;;34.18;45.45;97934.16;4985581;28;20054;-70
2022/09/30 12:07:41;;;;;;;29.10;11.95;;;;;;;34.13;45.44;97940.88;4947863;28;20766;-72
2022/09/30 12:10:39;;;;;;;25.33;10.57;;;;;;;34.06;45.67;97935.25;4987631;28;20056;-72
2022/09/30 12:13:31;;;;;;;27.30;10.73;;;;;;;33.92;46.37;97941.56;4971973;28;20775;-72
2022/09/30 12:16:26;;;;;;;22.88;10.10;;;;;;;33.86;46.59;97932.78;4986859;28;20046;-75
2022/09/30 12:19:54;;;;;;;18.15;10.57;;;;;;;33.71;46.69;97931.09;4970777;28;20049;-71
2022/09/30 12:22:40;;;;;;;25.13;10.20;;;;;;;33.67;47.61;97933.03;4982074;28;20053;-71
2022/09/30 12:25:47;;;;;;;22.20;10.60;;;;;;;33.47;50.35;97938.03;4998428;28;20124;-75
2022/09/30 12:32:08;;;;;;;22.58;9.80;;;;;;;33.24;51.63;97929.91;4989265;28;20050;-73
2022/09/30 12:35:18;;;;;;;18.77;10.57;;;;;;;32.99;52.06;97936.00;4970406;28;20050;-74
2022/09/30 12:38:12;;;;;;;29.37;10.40;;;;;;;32.83;52.96;97933.47;4993957;28;20137;-73
2022/09/30 12:41:26;;;;;;;27.23;11.30;;;;;;;32.87;51.38;97939.06;4987101;28;20050;-74
2022/09/30 12:44:11;;;;;;;22.27;10.57;;;;;;;32.75;51.50;97937.34;4986152;28;20157;-72
2022/09/30 12:47:15;;;;;;;22.02;10.07;;;;;;;32.69;52.10;97941.66;4986280;28;20732;-73
2022/09/30 12:50:01;;;;;;;27.23;11.30;;;;;;;32.66;53.13;97945.22;4995461;28;20043;-70
2022/09/30 12:52:58;;;;;;;31.77;11.90;;;;;;;32.61;51.56;97951.09;4977549;28;20047;-73
2022/09/30 12:55:42;;;;;;;24.55;11.10;;;;;;;32.50;53.51;97948.97;4991472;28;20597;-71
2022/09/30 12:58:37;;;;;;;29.88;10.88;;;;;;;32.49;52.06;97949.34;4974375;28;20065;-73
2022/09/30 13:01:45;;;;;;;29.92;11.00;;;;;;;32.41;53.29;97956.78;4966962;28;20145;-70
2022/09/30 13:04:41;;;;;;;21.52;10.43;;;;;;;32.38;53.47;97958.31;4953168;28;20047;-72
2022/09/30 13:07:30;;;;;;;35.47;12.25;;;;;;;32.35;53.29;97953.56;4968067;28;20118;-68
2022/09/30 13:10:29;;;;;;;29.75;11.75;;;;;;;32.31;53.53;97960.22;4973131;28;20046;-70
2022/09/30 13:13:35;;;;;;;36.15;12.43;;;;;;;32.27;54.08;97956.59;4949510;28;20061;-73
2022/09/30 13:16:56;;;;;;;28.55;12.35;;;;;;;32.33;53.46;97960.63;4981347;28;20058;-72
2022/09/30 13:19:50;;;;;;;30.23;11.40;;;;;;;32.33;53.98;97960.63;4976914;28;20078;-70
2022/09/30 13:22:39;;;;;;;33.72;13.35;;;;;;;32.22;55.56;97971.63;4985787;28;20493;-74
2022/09/30 13:25:28;;;;;;;26.30;13.45;;;;;;;32.19;55.60;97959.28;4985289;28;20064;-69